Time;durP1;ratioP1;P1;durP2;ratioP2;P2;SDS_P1;SDS_P2;PMS_P1;PMS_P2;Temp;Humidity;BMP_temperature;BMP_pressure;BME280_temperature;BME280_humidity;BME280_pressure;Samples;Min_cycle;Max_cycle;Signal;HPM_P1;HPM_P2
2023/12/24 00:00:40;;;;;;;1.77;0.38;;;6.50;99.90;;;;;;4914370;29;20047;-67
2023/12/24 00:03:12;;;;;;;0.30;0.20;;;6.50;99.90;;;;;;4913344;29;20131;-67
2023/12/24 00:05:44;;;;;;;1.35;0.10;;;6.50;99.90;;;;;;4912808;29;20060;-67
2023/12/24 00:08:11;;;;;;;1.33;0.40;;;6.50;99.90;;;;;;4915826;29;20079;-67
2023/12/24 00:10:43;;;;;;;0.30;0.30;;;6.50;99.90;;;;;;4915296;29;20103;-67
2023/12/24 00:13:15;;;;;;;0.88;0.30;;;6.50;99.90;;;;;;4914557;29;20070;-67
2023/12/24 00:15:42;;;;;;;0.32;0.22;;;6.50;99.90;;;;;;4929707;29;20044;-67
2023/12/24 00:18:14;;;;;;;0.32;0.20;;;6.50;99.90;;;;;;4914774;29;20052;-67
2023/12/24 00:20:46;;;;;;;0.30;0.28;;;6.50;99.90;;;;;;4915941;29;20072;-67
2023/12/24 00:23:12;;;;;;;0.90;0.30;;;6.50;99.90;;;;;;4916991;29;20040;-67
2023/12/24 00:25:44;;;;;;;0.40;0.30;;;6.60;99.90;;;;;;4909184;29;20083;-67
2023/12/24 00:28:16;;;;;;;0.95;0.40;;;6.60;99.90;;;;;;4915447;29;20056;-67
2023/12/24 00:30:48;;;;;;;0.77;0.30;;;6.60;99.90;;;;;;4914698;29;20047;-67
2023/12/24 00:33:21;;;;;;;0.90;0.30;;;6.50;99.90;;;;;;4916425;29;20765;-67
2023/12/24 00:35:54;;;;;;;0.52;0.35;;;6.60;99.90;;;;;;4914757;29;20132;-67
2023/12/24 00:38:26;;;;;;;0.90;0.20;;;6.60;99.90;;;;;;4913468;29;20047;-68
2023/12/24 00:40:58;;;;;;;0.20;0.20;;;6.60;99.90;;;;;;4913150;29;20040;-68
2023/12/24 00:43:31;;;;;;;0.40;0.30;;;6.50;99.90;;;;;;4914592;29;20040;-67
2023/12/24 00:46:02;;;;;;;0.30;0.20;;;6.50;99.90;;;;;;4901958;29;20060;-67
2023/12/24 00:48:29;;;;;;;0.20;0.20;;;6.50;99.90;;;;;;4903416;29;20036;-68
2023/12/24 00:51:03;;;;;;;0.40;0.30;;;6.50;99.90;;;;;;4914925;29;20136;-67
2023/12/24 00:53:36;;;;;;;0.22;0.20;;;6.50;99.90;;;;;;4913216;29;20060;-67
2023/12/24 00:56:07;;;;;;;0.73;0.40;;;6.40;99.90;;;;;;4896726;29;20055;-68
2023/12/24 00:58:34;;;;;;;0.55;0.30;;;6.40;99.90;;;;;;4897297;29;20040;-68
2023/12/24 01:01:06;;;;;;;0.60;0.30;;;6.40;99.90;;;;;;4914802;29;20047;-67
2023/12/24 01:03:38;;;;;;;0.55;0.30;;;6.50;99.90;;;;;;4909858;29;20571;-67
2023/12/24 01:06:10;;;;;;;0.52;0.30;;;6.50;99.90;;;;;;4903229;29;20421;-67
2023/12/24 01:08:42;;;;;;;0.38;0.20;;;6.50;99.90;;;;;;4908203;29;20048;-68
2023/12/24 01:11:14;;;;;;;0.52;0.30;;;6.40;99.90;;;;;;4914859;29;20509;-67
2023/12/24 01:13:46;;;;;;;0.80;0.30;;;6.40;99.90;;;;;;4913974;29;20505;-67
2023/12/24 01:16:18;;;;;;;0.75;0.32;;;6.40;99.90;;;;;;4897771;29;20543;-67
2023/12/24 01:18:51;;;;;;;0.50;0.30;;;6.40;99.90;;;;;;4914976;29;20052;-67
2023/12/24 01:21:23;;;;;;;0.68;0.20;;;6.40;99.90;;;;;;4930031;29;20078;-67
2023/12/24 01:23:55;;;;;;;0.50;0.38;;;6.40;99.90;;;;;;4914476;29;20055;-67
2023/12/24 01:26:27;;;;;;;0.40;0.30;;;6.30;99.90;;;;;;4914341;29;20481;-67
2023/12/24 01:29:00;;;;;;;0.50;0.40;;;6.30;99.90;;;;;;4897382;29;20514;-67
2023/12/24 01:31:32;;;;;;;0.30;0.30;;;6.30;99.90;;;;;;4910031;29;20473;-67
2023/12/24 01:33:59;;;;;;;0.38;0.30;;;6.30;99.90;;;;;;4920662;29;20044;-67
2023/12/24 01:36:31;;;;;;;0.50;0.30;;;6.30;99.90;;;;;;4915713;29;20052;-67
2023/12/24 01:39:03;;;;;;;0.80;0.28;;;6.40;99.90;;;;;;4913203;29;20143;-67
2023/12/24 01:41:35;;;;;;;0.90;0.40;;;6.30;99.90;;;;;;4913901;29;20068;-67
2023/12/24 01:44:07;;;;;;;0.30;0.30;;;6.30;99.90;;;;;;4914463;29;20067;-67
2023/12/24 01:46:33;;;;;;;0.38;0.30;;;6.30;99.90;;;;;;4929718;29;20135;-67
2023/12/24 01:49:06;;;;;;;0.50;0.30;;;6.20;99.90;;;;;;4897381;29;20047;-67
2023/12/24 01:51:38;;;;;;;0.52;0.30;;;6.30;99.90;;;;;;4896632;29;20048;-67
2023/12/24 01:54:11;;;;;;;0.22;0.20;;;6.30;99.90;;;;;;4910197;29;20051;-67
2023/12/24 01:56:40;;;;;;;0.38;0.22;;;6.30;99.90;;;;;;4922594;29;20048;-67
2023/12/24 01:59:12;;;;;;;;;;;6.20;99.90;;;;;;4892311;29;20066;-67
2023/12/24 02:01:39;;;;;;;0.20;0.20;;;6.30;99.90;;;;;;4913440;29;19934;-67
2023/12/24 02:04:11;;;;;;;0.50;0.30;;;6.30;99.90;;;;;;4897018;29;20054;-67
2023/12/24 02:06:43;;;;;;;0.85;0.30;;;6.30;99.90;;;;;;4913098;29;20505;-67
2023/12/24 02:09:15;;;;;;;0.40;0.20;;;6.30;99.90;;;;;;4909674;29;20589;-67
2023/12/24 02:11:47;;;;;;;0.30;0.30;;;6.30;99.90;;;;;;4900031;29;20098;-67
2023/12/24 02:14:19;;;;;;;0.50;0.30;;;6.30;99.90;;;;;;4909346;29;20078;-67
2023/12/24 02:16:52;;;;;;;0.60;0.40;;;6.30;99.90;;;;;;4910228;29;20048;-67
2023/12/24 02:19:25;;;;;;;0.30;0.30;;;6.30;99.90;;;;;;4898330;29;20063;-67
2023/12/24 02:21:57;;;;;;;0.40;0.20;;;6.30;99.90;;;;;;4912179;29;20139;-68
2023/12/24 02:24:29;;;;;;;0.60;0.30;;;6.30;99.90;;;;;;4911549;29;20044;-67
2023/12/24 02:27:05;;;;;;;2.33;0.50;;;6.20;99.90;;;;;;4920439;29;20132;-67
2023/12/24 02:29:39;;;;;;;0.88;0.40;;;6.20;99.90;;;;;;4913240;29;20107;-67
2023/12/24 02:32:25;;;;;;;0.45;0.30;;;6.20;99.90;;;;;;4897618;29;20131;-67
2023/12/24 02:34:59;;;;;;;2.35;0.60;;;6.20;99.90;;;;;;4912254;29;20063;-67
2023/12/24 02:37:31;;;;;;;0.70;0.40;;;6.20;99.90;;;;;;4908664;29;20568;-67
2023/12/24 02:40:03;;;;;;;0.73;0.40;;;6.20;99.90;;;;;;4902128;29;20050;-67
2023/12/24 02:42:35;;;;;;;1.00;0.40;;;6.20;99.90;;;;;;4900760;29;20071;-67
2023/12/24 02:45:08;;;;;;;0.32;0.32;;;6.20;99.90;;;;;;4896895;29;20454;-67
2023/12/24 02:47:41;;;;;;;;;;;6.30;99.90;;;;;;4904169;29;20425;-67
2023/12/24 02:50:09;;;;;;;0.50;0.30;;;6.30;99.90;;;;;;4897626;29;19943;-67
2023/12/24 02:52:36;;;;;;;0.98;0.45;;;6.30;99.90;;;;;;4906047;29;20044;-67
2023/12/24 02:55:08;;;;;;;1.33;0.68;;;6.30;99.90;;;;;;4912252;29;20543;-67
2023/12/24 02:57:39;;;;;;;0.88;0.38;;;6.30;99.90;;;;;;4906365;29;20055;-67
2023/12/24 03:00:12;;;;;;;0.77;0.40;;;6.30;99.90;;;;;;4915100;29;20051;-67
2023/12/24 03:02:44;;;;;;;0.45;0.30;;;6.30;99.90;;;;;;4923211;29;20052;-67
2023/12/24 03:05:17;;;;;;;0.50;0.40;;;6.40;99.90;;;;;;4901691;29;20040;-67
2023/12/24 03:07:49;;;;;;;0.60;0.30;;;6.40;99.90;;;;;;4916521;29;20501;-67
2023/12/24 03:10:21;;;;;;;0.60;0.30;;;6.40;99.90;;;;;;4901603;29;20052;-67
2023/12/24 03:12:52;;;;;;;0.43;0.40;;;6.30;99.90;;;;;;4905869;29;20123;-67
2023/12/24 03:15:24;;;;;;;0.50;0.22;;;6.40;99.90;;;;;;4917795;29;20047;-67
2023/12/24 03:17:56;;;;;;;1.73;0.32;;;6.50;99.90;;;;;;4916738;29;20402;-67
2023/12/24 03:20:23;;;;;;;1.17;0.50;;;6.40;99.90;;;;;;4926311;29;20051;-67
2023/12/24 03:22:55;;;;;;;1.05;0.40;;;6.40;99.90;;;;;;4916716;29;20450;-67
2023/12/24 03:25:27;;;;;;;0.30;0.28;;;6.40;99.90;;;;;;4915044;29;20047;-67
2023/12/24 03:27:59;;;;;;;0.63;0.38;;;6.40;99.90;;;;;;4914622;29;20050;-67
2023/12/24 03:30:25;;;;;;;0.70;0.50;;;6.40;99.90;;;;;;4927777;29;20041;-67
2023/12/24 03:32:57;;;;;;;0.50;0.30;;;6.40;99.90;;;;;;4915381;29;20051;-67
2023/12/24 03:35:29;;;;;;;0.40;0.30;;;6.40;99.90;;;;;;4910832;29;20059;-67
2023/12/24 03:38:01;;;;;;;0.77;0.45;;;6.40;99.90;;;;;;4930222;29;20052;-67
2023/12/24 03:40:33;;;;;;;0.52;0.30;;;6.50;99.90;;;;;;4914565;29;20055;-67
2023/12/24 03:43:00;;;;;;;0.57;0.40;;;6.50;99.90;;;;;;4906374;29;20080;-67
2023/12/24 03:45:32;;;;;;;0.55;0.35;;;6.50;99.90;;;;;;4928214;29;20414;-67
2023/12/24 03:48:05;;;;;;;0.40;0.30;;;6.50;99.90;;;;;;4906163;29;20059;-67
2023/12/24 03:50:37;;;;;;;0.85;0.40;;;6.40;99.90;;;;;;4926067;29;20048;-67
2023/12/24 03:53:06;;;;;;;0.22;0.20;;;6.50;99.90;;;;;;4898017;29;20411;-67
2023/12/24 03:55:38;;;;;;;0.60;0.30;;;6.50;99.90;;;;;;4915682;29;20055;-67
2023/12/24 03:58:04;;;;;;;0.38;0.30;;;6.50;99.90;;;;;;4898217;29;20410;-67
2023/12/24 04:00:36;;;;;;;0.38;0.38;;;6.50;99.90;;;;;;4924680;29;20064;-67
2023/12/24 04:03:08;;;;;;;0.63;0.40;;;6.60;99.90;;;;;;4899800;29;20055;-67
2023/12/24 04:05:40;;;;;;;0.43;0.30;;;6.50;99.90;;;;;;4916466;29;20516;-67
2023/12/24 04:08:12;;;;;;;0.77;0.40;;;6.50;99.90;;;;;;4915772;29;20048;-67
2023/12/24 04:10:44;;;;;;;0.60;0.30;;;6.60;99.90;;;;;;4915529;29;20046;-67
2023/12/24 04:13:17;;;;;;;1.87;0.40;;;6.60;99.90;;;;;;4914502;29;20055;-67
2023/12/24 04:15:48;;;;;;;0.57;0.55;;;6.60;99.90;;;;;;4925230;29;20052;-67
2023/12/24 04:18:20;;;;;;;0.93;0.30;;;6.60;99.90;;;;;;4901131;29;20426;-67
2023/12/24 04:20:52;;;;;;;0.30;0.30;;;6.70;99.90;;;;;;4914985;29;20060;-67
2023/12/24 04:23:24;;;;;;;0.30;0.20;;;6.60;99.90;;;;;;4901009;29;20051;-67
2023/12/24 04:25:56;;;;;;;0.30;0.30;;;6.60;99.90;;;;;;4916921;29;20497;-67
2023/12/24 04:28:24;;;;;;;2.83;1.10;;;6.60;99.90;;;;;;4903838;29;20040;-67
2023/12/24 04:30:56;;;;;;;0.90;0.20;;;6.60;99.90;;;;;;4915922;29;20422;-67
2023/12/24 04:33:29;;;;;;;0.75;0.30;;;6.70;99.90;;;;;;4904196;29;20111;-67
2023/12/24 04:36:02;;;;;;;1.20;0.20;;;6.70;99.90;;;;;;4904802;29;20577;-67
2023/12/24 04:38:34;;;;;;;1.40;0.35;;;6.70;99.90;;;;;;4899221;29;20044;-67
2023/12/24 04:41:06;;;;;;;0.60;0.30;;;6.60;99.90;;;;;;4919709;29;20446;-67
2023/12/24 04:43:37;;;;;;;0.50;0.40;;;6.60;99.90;;;;;;4904747;29;20054;-67
2023/12/24 04:46:10;;;;;;;0.20;0.20;;;6.60;99.90;;;;;;4915501;29;20099;-67
2023/12/24 04:48:41;;;;;;;0.30;0.20;;;6.60;99.90;;;;;;4900531;29;20115;-67
2023/12/24 04:51:13;;;;;;;0.90;0.30;;;6.60;99.90;;;;;;4915618;29;20044;-67
2023/12/24 04:53:45;;;;;;;0.47;0.30;;;6.60;99.90;;;;;;4913888;29;20051;-67
2023/12/24 04:56:21;;;;;;;0.20;0.20;;;6.60;99.90;;;;;;4927924;29;20138;-67
2023/12/24 04:58:53;;;;;;;0.22;0.20;;;6.60;99.90;;;;;;4913058;29;20050;-67
2023/12/24 05:01:26;;;;;;;0.70;0.25;;;6.60;99.90;;;;;;4915157;29;20613;-67
2023/12/24 05:03:58;;;;;;;0.82;0.68;;;6.50;99.90;;;;;;4914193;29;20040;-67
2023/12/24 05:06:31;;;;;;;0.20;0.20;;;6.50;99.90;;;;;;4906303;29;20096;-67
2023/12/24 05:09:03;;;;;;;0.50;0.30;;;6.50;99.90;;;;;;4915005;29;20519;-67
2023/12/24 05:11:30;;;;;;;0.55;0.20;;;6.40;99.90;;;;;;4906477;29;20041;-68
2023/12/24 05:14:02;;;;;;;0.70;0.30;;;6.40;99.90;;;;;;4912401;29;20099;-67
2023/12/24 05:16:34;;;;;;;0.70;0.25;;;6.40;99.90;;;;;;4899874;29;20052;-67
2023/12/24 05:19:06;;;;;;;0.43;0.35;;;6.40;99.90;;;;;;4899954;29;20052;-67
2023/12/24 05:21:38;;;;;;;0.57;0.45;;;6.40;99.90;;;;;;4899987;29;20420;-67
2023/12/24 05:24:05;;;;;;;0.50;0.40;;;6.40;99.90;;;;;;4903197;29;20048;-67
2023/12/24 05:26:32;;;;;;;2.65;0.50;;;6.40;99.90;;;;;;4899073;29;20063;-67
2023/12/24 05:29:04;;;;;;;1.25;0.50;;;6.40;99.90;;;;;;4914727;29;20505;-67
2023/12/24 05:31:42;;;;;;;0.68;0.47;;;6.40;99.90;;;;;;4916193;29;20052;-67
2023/12/24 05:34:13;;;;;;;1.63;0.57;;;6.40;99.90;;;;;;4906911;29;20054;-67
2023/12/24 05:36:47;;;;;;;0.40;0.40;;;6.40;99.90;;;;;;4914705;29;20047;-67
2023/12/24 05:39:19;;;;;;;0.85;0.60;;;6.40;99.90;;;;;;4915373;29;20050;-67
2023/12/24 05:41:46;;;;;;;0.85;0.40;;;6.40;99.90;;;;;;4907973;29;20691;-67
2023/12/24 05:44:18;;;;;;;0.63;0.47;;;6.40;99.90;;;;;;4914090;29;20523;-67
2023/12/24 05:46:53;;;;;;;0.77;0.50;;;6.40;99.90;;;;;;4912818;29;20131;-67
2023/12/24 05:49:25;;;;;;;0.70;0.32;;;6.40;99.90;;;;;;4914771;29;20063;-67
2023/12/24 05:51:57;;;;;;;2.03;0.45;;;6.40;99.90;;;;;;4915107;29;20058;-67
2023/12/24 05:54:29;;;;;;;0.80;0.43;;;6.40;99.90;;;;;;4915601;29;20052;-67
2023/12/24 05:57:01;;;;;;;0.40;0.30;;;6.40;99.90;;;;;;4909769;29;20044;-67
2023/12/24 05:59:33;;;;;;;1.65;0.40;;;6.40;99.90;;;;;;4913422;29;20052;-67
2023/12/24 06:02:05;;;;;;;1.27;0.30;;;6.50;99.90;;;;;;4916507;29;21316;-69
2023/12/24 06:04:37;;;;;;;0.52;0.35;;;6.50;99.90;;;;;;4914286;29;20520;-67
2023/12/24 06:07:09;;;;;;;0.65;0.43;;;6.50;99.90;;;;;;4914715;29;20493;-67
2023/12/24 06:09:41;;;;;;;0.80;0.38;;;6.60;99.90;;;;;;4915763;29;20043;-67
2023/12/24 06:12:13;;;;;;;0.60;0.30;;;6.50;99.90;;;;;;4917553;29;20091;-67
2023/12/24 06:14:45;;;;;;;0.70;0.40;;;6.60;99.90;;;;;;4917828;29;20123;-67
2023/12/24 06:17:17;;;;;;;0.63;0.50;;;6.60;99.90;;;;;;4911814;29;20540;-67
2023/12/24 06:19:49;;;;;;;0.63;0.40;;;6.60;99.90;;;;;;4917147;29;20054;-67
2023/12/24 06:22:21;;;;;;;0.68;0.40;;;6.60;99.90;;;;;;4915105;29;20127;-67
2023/12/24 06:24:53;;;;;;;0.45;0.38;;;6.60;99.90;;;;;;4916212;29;20055;-67
2023/12/24 06:27:25;;;;;;;0.60;0.45;;;6.60;99.90;;;;;;4911122;29;20139;-67
2023/12/24 06:29:57;;;;;;;1.08;0.50;;;6.60;99.90;;;;;;4914835;29;20682;-67
2023/12/24 06:32:29;;;;;;;3.75;0.50;;;6.60;99.90;;;;;;4914584;29;20064;-67
2023/12/24 06:34:56;;;;;;;0.60;0.43;;;6.60;99.90;;;;;;4917843;29;20040;-67
2023/12/24 06:37:28;;;;;;;1.00;0.40;;;6.60;99.90;;;;;;4913295;29;20044;-67
2023/12/24 06:40:00;;;;;;;0.40;0.32;;;6.60;99.90;;;;;;4914677;29;20048;-67
2023/12/24 06:42:32;;;;;;;0.43;0.30;;;6.60;99.90;;;;;;4917408;29;20143;-67
2023/12/24 06:44:59;;;;;;;1.33;0.40;;;6.60;99.90;;;;;;4919100;29;20051;-68
2023/12/24 06:47:31;;;;;;;0.60;0.30;;;6.60;99.90;;;;;;4911714;29;20051;-67
2023/12/24 06:50:03;;;;;;;0.68;0.47;;;6.60;99.90;;;;;;4911914;29;20040;-67
2023/12/24 06:52:34;;;;;;;0.95;0.55;;;6.70;99.90;;;;;;4913920;29;20048;-67
2023/12/24 06:55:07;;;;;;;0.52;0.43;;;6.70;99.90;;;;;;4914825;29;20054;-67
2023/12/24 06:57:38;;;;;;;0.68;0.40;;;6.70;99.90;;;;;;4913910;29;20111;-67
2023/12/24 07:00:06;;;;;;;1.25;0.60;;;6.60;99.90;;;;;;4915072;29;20498;-67
2023/12/24 07:02:38;;;;;;;0.95;0.60;;;6.70;99.90;;;;;;4896954;29;20049;-67
2023/12/24 07:05:05;;;;;;;0.60;0.40;;;6.70;99.90;;;;;;4913411;29;20143;-67
2023/12/24 07:07:37;;;;;;;1.45;0.40;;;6.70;99.90;;;;;;4897631;29;20418;-67
2023/12/24 07:10:09;;;;;;;0.57;0.40;;;6.80;99.90;;;;;;4911184;29;20044;-67
2023/12/24 07:12:40;;;;;;;0.70;0.40;;;6.70;99.90;;;;;;4915090;29;20052;-67
2023/12/24 07:15:12;;;;;;;1.63;0.50;;;6.70;99.90;;;;;;4907854;29;20044;-67
2023/12/24 07:17:44;;;;;;;0.43;0.25;;;6.70;99.90;;;;;;4914663;29;20573;-67
2023/12/24 07:20:16;;;;;;;0.60;0.40;;;6.70;99.90;;;;;;4924345;29;20063;-67
2023/12/24 07:22:44;;;;;;;1.48;0.50;;;6.80;99.90;;;;;;4910644;29;20036;-67
2023/12/24 07:25:11;;;;;;;1.05;0.30;;;6.80;99.90;;;;;;4913671;29;20834;-67
2023/12/24 07:27:38;;;;;;;0.60;0.47;;;6.80;99.90;;;;;;4914876;29;20036;-67
2023/12/24 07:30:11;;;;;;;0.90;0.43;;;6.70;99.90;;;;;;4914656;29;20047;-67
2023/12/24 07:32:44;;;;;;;0.50;0.40;;;6.80;99.90;;;;;;4926046;29;20083;-67
2023/12/24 07:35:16;;;;;;;0.55;0.30;;;6.80;99.90;;;;;;4917384;29;20052;-67
2023/12/24 07:37:48;;;;;;;0.77;0.40;;;6.80;99.90;;;;;;4914566;29;20044;-67
2023/12/24 07:40:20;;;;;;;0.73;0.32;;;6.80;99.90;;;;;;4914716;29;20048;-67
2023/12/24 07:42:52;;;;;;;0.45;0.30;;;6.80;99.90;;;;;;4911751;29;20048;-67
2023/12/24 07:45:24;;;;;;;1.52;0.20;;;6.90;99.90;;;;;;4925384;29;20489;-66
2023/12/24 07:47:56;;;;;;;0.30;0.20;;;6.80;99.90;;;;;;4916724;29;20040;-67
2023/12/24 07:50:28;;;;;;;0.40;0.38;;;6.90;99.90;;;;;;4904363;29;20668;-67
2023/12/24 07:53:00;;;;;;;0.30;0.20;;;6.90;99.90;;;;;;4917856;29;20050;-67
2023/12/24 07:55:32;;;;;;;1.55;0.30;;;6.90;99.90;;;;;;4899308;29;20399;-67
2023/12/24 07:58:04;;;;;;;0.43;0.30;;;6.90;99.90;;;;;;4943779;29;20051;-67
2023/12/24 08:00:36;;;;;;;0.60;0.43;;;6.90;99.90;;;;;;4916643;29;20048;-67
2023/12/24 08:03:03;;;;;;;0.55;0.30;;;6.90;99.90;;;;;;4906134;29;20066;-66
2023/12/24 08:05:35;;;;;;;0.98;0.40;;;7.00;99.90;;;;;;4917651;29;20044;-67
2023/12/24 08:08:07;;;;;;;0.68;0.40;;;7.00;99.90;;;;;;4906236;29;20037;-67
2023/12/24 08:10:34;;;;;;;0.82;0.30;;;7.00;99.90;;;;;;4924658;29;20044;-67
2023/12/24 08:13:06;;;;;;;0.68;0.40;;;6.90;99.90;;;;;;4907748;29;20049;-67
2023/12/24 08:15:38;;;;;;;0.93;0.50;;;7.00;99.90;;;;;;4913174;29;20067;-67
2023/12/24 08:18:10;;;;;;;0.77;0.30;;;7.00;99.90;;;;;;4913898;29;20048;-67
2023/12/24 08:20:42;;;;;;;1.05;0.32;;;6.90;99.90;;;;;;4919818;29;20078;-67
2023/12/24 08:23:16;;;;;;;0.30;0.30;;;6.90;99.90;;;;;;4915551;29;20044;-67
2023/12/24 08:25:48;;;;;;;0.30;0.30;;;6.90;99.90;;;;;;4914115;29;20501;-67
2023/12/24 08:28:14;;;;;;;0.65;0.40;;;6.90;99.90;;;;;;4915456;29;20535;-67
2023/12/24 08:30:42;;;;;;;0.30;0.30;;;6.90;99.90;;;;;;4915469;29;20040;-67
2023/12/24 08:33:14;;;;;;;2.80;0.40;;;6.90;99.90;;;;;;4914908;29;20071;-67
2023/12/24 08:35:46;;;;;;;0.68;0.30;;;6.90;99.90;;;;;;4916301;29;20036;-67
2023/12/24 08:38:13;;;;;;;1.60;0.38;;;6.90;99.90;;;;;;4915276;29;20063;-67
2023/12/24 08:40:45;;;;;;;0.52;0.30;;;6.90;99.90;;;;;;4913990;29;20048;-67
2023/12/24 08:43:16;;;;;;;1.38;0.45;;;7.00;99.90;;;;;;4916560;29;20059;-67
2023/12/24 08:45:49;;;;;;;0.82;0.30;;;6.90;99.90;;;;;;4898095;29;20144;-68
2023/12/24 08:48:16;;;;;;;0.50;0.30;;;7.00;99.90;;;;;;4913503;29;20100;-67
2023/12/24 08:50:48;;;;;;;3.47;0.40;;;7.00;99.90;;;;;;4914577;29;20618;-67
2023/12/24 08:53:20;;;;;;;0.50;0.30;;;7.00;99.90;;;;;;4915775;29;20052;-67
2023/12/24 08:55:52;;;;;;;1.27;0.50;;;7.00;99.90;;;;;;4909122;29;20044;-67
2023/12/24 08:58:24;;;;;;;0.63;0.30;;;7.00;99.90;;;;;;4912497;29;20505;-67
2023/12/24 09:00:56;;;;;;;0.80;0.45;;;7.00;99.90;;;;;;4910458;29;20426;-67
2023/12/24 09:03:28;;;;;;;0.77;0.40;;;7.00;99.90;;;;;;4910454;29;20116;-67
2023/12/24 09:06:00;;;;;;;0.57;0.30;;;7.10;99.90;;;;;;4926059;29;20398;-67
2023/12/24 09:08:32;;;;;;;1.75;0.50;;;7.10;99.90;;;;;;4908356;29;20047;-67
2023/12/24 09:11:04;;;;;;;1.98;0.38;;;7.10;99.90;;;;;;4916728;29;20040;-67
2023/12/24 09:13:36;;;;;;;0.70;0.30;;;7.10;99.90;;;;;;4916222;29;20040;-67
2023/12/24 09:16:08;;;;;;;0.77;0.30;;;7.20;99.90;;;;;;4914950;29;20059;-67
2023/12/24 09:18:40;;;;;;;0.38;0.30;;;7.20;99.90;;;;;;4918325;29;20048;-67
2023/12/24 09:21:12;;;;;;;0.30;0.30;;;7.20;99.90;;;;;;4915929;29;20748;-67
2023/12/24 09:23:44;;;;;;;0.47;0.30;;;7.30;99.90;;;;;;4914544;29;20482;-67
2023/12/24 09:26:16;;;;;;;0.77;0.50;;;7.30;99.90;;;;;;4913321;29;20059;-67
2023/12/24 09:28:48;;;;;;;0.47;0.30;;;7.30;99.90;;;;;;4913756;29;20040;-67
2023/12/24 09:31:20;;;;;;;0.40;0.30;;;7.40;99.90;;;;;;4905314;29;20602;-67
2023/12/24 09:33:51;;;;;;;0.30;0.20;;;7.40;99.90;;;;;;4916152;29;20048;-67
2023/12/24 09:36:23;;;;;;;0.50;0.30;;;7.40;99.90;;;;;;4915262;29;20052;-67
2023/12/24 09:38:50;;;;;;;0.22;0.22;;;7.50;99.90;;;;;;4915038;29;20060;-67
2023/12/24 09:41:22;;;;;;;0.95;0.30;;;7.50;99.90;;;;;;4898066;29;20071;-67
2023/12/24 09:43:54;;;;;;;1.40;0.40;;;7.50;99.90;;;;;;4910552;29;20055;-67
2023/12/24 09:46:21;;;;;;;1.20;0.40;;;7.50;99.90;;;;;;4913518;29;20091;-67
2023/12/24 09:48:52;;;;;;;1.15;0.22;;;7.60;99.90;;;;;;4922479;29;20063;-67
2023/12/24 09:51:26;;;;;;;0.75;0.40;;;7.60;99.90;;;;;;4928760;29;20047;-67
2023/12/24 09:53:58;;;;;;;0.60;0.50;;;7.60;99.90;;;;;;4904670;29;20449;-67
2023/12/24 09:56:30;;;;;;;0.57;0.43;;;7.60;99.90;;;;;;4915448;29;20048;-67
2023/12/24 09:59:03;;;;;;;0.60;0.30;;;7.70;99.90;;;;;;4911085;29;20040;-67
2023/12/24 10:01:44;;;;;;;0.73;0.40;;;7.70;99.90;;;;;;4911221;29;20048;-67
2023/12/24 10:04:16;;;;;;;0.70;0.40;;;7.70;99.90;;;;;;4894969;29;20533;-67
2023/12/24 10:06:52;;;;;;;0.68;0.40;;;7.80;99.90;;;;;;4913121;29;20044;-67
2023/12/24 10:09:45;;;;;;;0.43;0.35;;;7.70;99.90;;;;;;4939020;28;20714;-67
2023/12/24 10:12:12;;;;;;;0.60;0.40;;;7.80;99.90;;;;;;4901095;29;20076;-67
2023/12/24 10:14:55;;;;;;;0.63;0.30;;;7.80;99.90;;;;;;4912742;29;20052;-67
2023/12/24 10:17:32;;;;;;;0.50;0.40;;;7.80;99.90;;;;;;4913291;29;20040;-70
2023/12/24 10:20:08;;;;;;;0.95;0.70;;;7.80;99.90;;;;;;4913254;29;20044;-67
2023/12/24 10:22:35;;;;;;;1.05;0.30;;;7.90;99.90;;;;;;4910395;29;20036;-67
2023/12/24 10:25:04;;;;;;;0.60;0.50;;;7.90;99.90;;;;;;4913211;29;20047;-67
2023/12/24 10:27:36;;;;;;;0.45;0.30;;;7.90;99.90;;;;;;4913728;29;20067;-67
2023/12/24 10:30:13;;;;;;;0.30;0.30;;;8.00;99.90;;;;;;4911903;29;20048;-67
2023/12/24 10:32:44;;;;;;;0.90;0.52;;;8.00;99.90;;;;;;4907206;29;20068;-67
2023/12/24 10:35:23;;;;;;;1.90;0.25;;;8.00;99.90;;;;;;4913050;29;20055;-67
2023/12/24 10:38:15;;;;;;;0.52;0.30;;;8.10;99.90;;;;;;4913346;29;20052;-67
2023/12/24 10:40:47;;;;;;;0.50;0.40;;;8.10;99.90;;;;;;4895981;29;20055;-67
2023/12/24 10:43:19;;;;;;;0.50;0.30;;;8.10;99.90;;;;;;4913656;29;20028;-67
2023/12/24 10:45:51;;;;;;;0.82;0.40;;;8.10;99.90;;;;;;4911528;29;20582;-67
2023/12/24 10:48:23;;;;;;;0.65;0.20;;;8.10;99.90;;;;;;4913011;29;20076;-67
2023/12/24 10:50:55;;;;;;;0.43;0.20;;;8.10;99.90;;;;;;4911825;29;20047;-67
2023/12/24 10:53:21;;;;;;;0.95;0.40;;;8.00;99.90;;;;;;4912504;29;20056;-67
2023/12/24 10:56:05;;;;;;;0.40;0.30;;;7.90;99.90;;;;;;4916796;29;20444;-67
2023/12/24 10:58:53;;;;;;;1.55;0.38;;;7.90;99.90;;;;;;4911320;29;20048;-67
2023/12/24 11:01:25;;;;;;;1.00;0.50;;;7.80;99.90;;;;;;4911854;29;20052;-66
2023/12/24 11:03:57;;;;;;;0.80;0.43;;;7.70;99.90;;;;;;4913997;29;20037;-66
2023/12/24 11:06:39;;;;;;;1.90;1.27;;;7.60;99.90;;;;;;4907643;29;20055;-66
2023/12/24 11:09:29;;;;;;;0.82;0.50;;;7.50;99.90;;;;;;4912441;29;20123;-67
2023/12/24 11:12:01;;;;;;;0.65;0.47;;;7.50;99.90;;;;;;4910962;29;20052;-66
2023/12/24 11:14:45;;;;;;;1.20;0.60;;;7.40;99.90;;;;;;4911051;29;20528;-67
2023/12/24 11:17:38;;;;;;;1.00;0.60;;;7.40;99.90;;;;;;4905520;29;20032;-67
2023/12/24 11:20:20;;;;;;;0.60;0.40;;;7.40;99.90;;;;;;4910841;29;20078;-67
2023/12/24 11:23:04;;;;;;;1.17;0.70;;;7.40;99.90;;;;;;4914568;29;20055;-67
2023/12/24 11:25:38;;;;;;;0.55;0.43;;;7.40;99.90;;;;;;4912420;29;20051;-67
2023/12/24 11:28:12;;;;;;;1.00;0.70;;;7.40;99.90;;;;;;4914786;29;20411;-67
2023/12/24 11:30:51;;;;;;;;;;;7.30;99.90;;;;;;4916196;29;20071;-67
2023/12/24 11:33:42;;;;;;;0.82;0.60;;;7.30;99.90;;;;;;4924221;29;19995;-67
2023/12/24 11:36:15;;;;;;;0.80;0.60;;;7.20;99.90;;;;;;4912797;29;20044;-67
2023/12/24 11:38:48;;;;;;;1.63;0.80;;;7.20;99.90;;;;;;4912026;29;20071;-67
2023/12/24 11:41:23;;;;;;;0.88;0.50;;;7.10;99.90;;;;;;4915885;29;20055;-67
2023/12/24 11:44:00;;;;;;;0.68;0.47;;;7.00;99.90;;;;;;4911872;29;20126;-66
2023/12/24 11:46:35;;;;;;;0.88;0.75;;;7.00;99.90;;;;;;4913692;29;20048;-66
2023/12/24 11:49:11;;;;;;;0.85;0.43;;;7.00;99.90;;;;;;4927885;29;20051;-66
2023/12/24 11:51:38;;;;;;;1.73;0.50;;;7.00;99.90;;;;;;4914911;29;20058;-66
2023/12/24 11:54:10;;;;;;;1.92;0.70;;;7.00;99.90;;;;;;4915431;29;20040;-66
2023/12/24 11:56:47;;;;;;;0.57;0.40;;;7.00;99.90;;;;;;4911985;29;20103;-66
2023/12/24 11:59:18;;;;;;;0.73;0.60;;;7.10;99.90;;;;;;4913233;29;20051;-66
2023/12/24 12:01:45;;;;;;;0.75;0.60;;;7.10;99.90;;;;;;4914254;29;20050;-66
2023/12/24 12:04:19;;;;;;;1.70;1.23;;;7.10;99.90;;;;;;4914468;29;20067;-66
2023/12/24 12:06:51;;;;;;;1.10;0.45;;;7.00;99.90;;;;;;4927878;29;20153;-66
2023/12/24 12:09:19;;;;;;;0.80;0.52;;;7.00;99.90;;;;;;4912550;29;20561;-66
2023/12/24 12:11:47;;;;;;;0.95;0.60;;;7.00;99.90;;;;;;4920243;29;20048;-67
2023/12/24 12:14:19;;;;;;;0.50;0.40;;;7.10;99.90;;;;;;4914566;29;20055;-66
2023/12/24 12:16:46;;;;;;;1.38;0.73;;;7.10;99.90;;;;;;4913627;29;20040;-66
2023/12/24 12:19:18;;;;;;;0.82;0.55;;;7.20;99.90;;;;;;4913331;29;20044;-66
2023/12/24 12:21:50;;;;;;;1.17;0.70;;;7.20;99.90;;;;;;4920612;29;20056;-66
2023/12/24 12:24:26;;;;;;;1.40;0.57;;;7.30;99.90;;;;;;4917827;29;20062;-66
2023/12/24 12:26:58;;;;;;;0.98;0.60;;;7.30;99.90;;;;;;4913384;29;20044;-66
2023/12/24 12:29:31;;;;;;;0.60;0.40;;;7.30;99.90;;;;;;4913129;29;20052;-66
2023/12/24 12:32:04;;;;;;;0.63;0.50;;;7.40;99.90;;;;;;4911771;29;20186;-66
2023/12/24 12:34:36;;;;;;;0.95;0.55;;;7.40;99.90;;;;;;4913107;29;20040;-66
2023/12/24 12:37:08;;;;;;;0.30;0.30;;;7.50;99.90;;;;;;4914544;29;20560;-66
2023/12/24 12:39:39;;;;;;;1.42;0.30;;;7.50;99.90;;;;;;4914869;29;20135;-66
2023/12/24 12:42:06;;;;;;;1.63;1.35;;;7.50;99.90;;;;;;4926902;29;20059;-67
2023/12/24 12:44:38;;;;;;;0.47;0.40;;;7.60;99.90;;;;;;4911921;29;20553;-67
2023/12/24 12:47:05;;;;;;;1.23;0.40;;;7.60;99.90;;;;;;4924882;29;20043;-66
2023/12/24 12:49:37;;;;;;;0.60;0.30;;;7.70;99.90;;;;;;4899286;29;20042;-66
2023/12/24 12:52:11;;;;;;;0.68;0.35;;;7.80;99.90;;;;;;4911564;29;20051;-66
2023/12/24 12:54:43;;;;;;;0.43;0.40;;;7.80;99.90;;;;;;4896348;29;20568;-66
2023/12/24 12:57:32;;;;;;;1.05;0.28;;;7.90;99.90;;;;;;4911520;29;20470;-67
2023/12/24 13:00:09;;;;;;;2.30;0.32;;;7.80;99.90;;;;;;4913653;29;20606;-68
2023/12/24 13:02:42;;;;;;;0.75;0.40;;;7.80;99.90;;;;;;4916801;29;20521;-67
2023/12/24 13:05:31;;;;;;;1.17;0.50;;;7.90;99.90;;;;;;4917810;29;20086;-66
2023/12/24 13:08:00;;;;;;;0.55;0.40;;;7.80;99.90;;;;;;4914670;29;20095;-66
2023/12/24 13:10:33;;;;;;;;;;;7.80;99.90;;;;;;4917007;29;20533;-68
2023/12/24 13:13:20;;;;;;;1.58;0.35;;;7.80;99.90;;;;;;4896498;29;20357;-66
2023/12/24 13:16:06;;;;;;;0.77;0.43;;;7.80;99.90;;;;;;4914597;29;20539;-68
2023/12/24 13:18:34;;;;;;;0.45;0.30;;;7.80;99.90;;;;;;4915854;29;20034;-66
2023/12/24 13:21:10;;;;;;;1.02;0.55;;;7.80;99.90;;;;;;4898624;29;20051;-67
2023/12/24 13:23:38;;;;;;;0.93;0.50;;;7.80;99.90;;;;;;4909141;29;20055;-68